createdAt,value
2019-03-17T00:00:24.811Z,1.70
2019-03-17T00:02:53.505Z,1.70
2019-03-17T00:05:22.092Z,1.70
2019-03-17T00:07:50.659Z,1.60
2019-03-17T00:10:19.420Z,1.60
2019-03-17T00:12:48.007Z,1.60
2019-03-17T00:15:16.683Z,1.60
2019-03-17T00:17:45.226Z,1.60
2019-03-17T00:20:13.865Z,1.60
2019-03-17T00:22:42.712Z,1.60
2019-03-17T00:25:11.694Z,1.60
2019-03-17T00:27:40.528Z,1.60
2019-03-17T00:30:12.576Z,1.60
2019-03-17T00:32:41.116Z,1.60
2019-03-17T00:35:10.206Z,1.60
2019-03-17T00:37:38.896Z,1.60
2019-03-17T00:40:10.000Z,1.60
2019-03-17T00:42:39.148Z,1.60
2019-03-17T00:45:12.088Z,1.60
2019-03-17T00:47:41.355Z,1.50
2019-03-17T00:50:11.249Z,1.50
2019-03-17T00:52:39.853Z,1.50
2019-03-17T00:55:08.674Z,1.40
2019-03-17T00:57:37.539Z,1.40
2019-03-17T01:00:09.584Z,1.30
2019-03-17T01:02:38.281Z,1.30
2019-03-17T01:05:07.029Z,1.30
2019-03-17T01:07:35.660Z,1.20
2019-03-17T01:10:06.093Z,1.20
2019-03-17T01:12:34.642Z,1.20
2019-03-17T01:15:03.847Z,1.10
2019-03-17T01:17:33.484Z,1.10
2019-03-17T01:20:02.535Z,1.00
2019-03-17T01:22:50.689Z,1.00
2019-03-17T01:25:19.650Z,1.00
2019-03-17T01:27:48.279Z,1.00
2019-03-17T01:30:17.103Z,1.00
2019-03-17T01:32:46.248Z,1.00
2019-03-17T01:35:14.811Z,1.00
2019-03-17T01:37:43.379Z,0.90
2019-03-17T01:40:12.340Z,0.80
2019-03-17T01:42:41.075Z,0.80
2019-03-17T01:45:10.824Z,0.80
2019-03-17T01:47:39.465Z,0.70
2019-03-17T01:50:08.947Z,0.70
2019-03-17T01:52:37.593Z,0.70
2019-03-17T01:55:07.111Z,0.70
2019-03-17T01:57:35.848Z,0.70
2019-03-17T02:00:06.565Z,0.70
2019-03-17T02:02:35.141Z,0.70
2019-03-17T02:05:04.650Z,0.70
2019-03-17T02:07:33.397Z,0.70
2019-03-17T02:10:02.179Z,0.60
2019-03-17T02:12:31.139Z,0.60
2019-03-17T02:15:00.433Z,0.60
2019-03-17T02:17:29.065Z,0.60
2019-03-17T02:19:57.740Z,0.60
2019-03-17T02:22:26.260Z,0.50
2019-03-17T02:24:54.835Z,0.50
2019-03-17T02:27:23.391Z,0.50
2019-03-17T02:29:52.066Z,0.50
2019-03-17T02:32:20.630Z,0.50
2019-03-17T02:34:49.216Z,0.50
2019-03-17T02:37:17.761Z,0.50
2019-03-17T02:39:46.356Z,0.50
2019-03-17T02:42:14.917Z,0.50
2019-03-17T02:44:43.510Z,0.40
2019-03-17T02:47:12.061Z,0.40
2019-03-17T02:49:40.733Z,0.40
2019-03-17T02:52:09.283Z,0.40
2019-03-17T02:54:37.872Z,0.30
2019-03-17T02:57:06.516Z,0.30
2019-03-17T02:59:35.128Z,0.30
2019-03-17T03:02:03.674Z,0.30
2019-03-17T03:04:32.238Z,0.30
2019-03-17T03:07:00.844Z,0.20
2019-03-17T03:09:29.461Z,0.20
2019-03-17T03:12:11.386Z,0.20
2019-03-17T03:14:39.951Z,0.20
2019-03-17T03:17:08.582Z,0.10
2019-03-17T03:19:37.133Z,0.10
2019-03-17T03:22:05.717Z,0.10
2019-03-17T03:24:34.273Z,0.10
2019-03-17T03:27:02.855Z,0.00
2019-03-17T03:29:31.421Z,0.00
2019-03-17T03:32:00.009Z,0.00
2019-03-17T03:34:28.570Z,0.00
2019-03-17T03:36:57.145Z,-0.10
2019-03-17T03:39:25.768Z,-0.10
2019-03-17T03:41:54.303Z,-0.10
2019-03-17T03:44:22.888Z,-0.10
2019-03-17T03:46:51.479Z,-0.10
2019-03-17T03:49:20.046Z,-0.20
2019-03-17T03:51:51.681Z,-0.20
2019-03-17T03:54:20.289Z,-0.20
2019-03-17T03:56:48.872Z,-0.30
2019-03-17T03:59:17.511Z,-0.30
2019-03-17T04:01:46.099Z,-0.30
2019-03-17T04:04:14.660Z,-0.30
2019-03-17T04:06:43.249Z,-0.40
2019-03-17T04:09:11.813Z,-0.40
2019-03-17T04:11:40.471Z,-0.50
2019-03-17T04:14:09.054Z,-0.50
2019-03-17T04:16:37.636Z,-0.60
2019-03-17T04:19:06.198Z,-0.60
2019-03-17T04:21:34.952Z,-0.70
2019-03-17T04:24:03.488Z,-0.70
2019-03-17T04:26:32.082Z,-0.70
2019-03-17T04:29:00.638Z,-0.80
2019-03-17T04:31:29.238Z,-0.80
2019-03-17T04:33:57.913Z,-0.80
2019-03-17T04:36:39.579Z,-0.90
2019-03-17T04:38:56.800Z,-0.90
2019-03-17T04:41:25.392Z,-0.90
2019-03-17T04:43:54.034Z,-0.90
2019-03-17T04:46:22.601Z,-0.90
2019-03-17T04:48:51.219Z,-0.90
2019-03-17T04:51:20.744Z,-0.90
2019-03-17T04:53:49.302Z,-0.90
2019-03-17T04:56:17.887Z,-0.90
2019-03-17T04:58:46.491Z,-0.90
2019-03-17T05:01:15.158Z,-0.90
2019-03-17T05:03:43.733Z,-0.90
2019-03-17T05:06:12.348Z,-0.90
2019-03-17T05:08:40.916Z,-0.80
2019-03-17T05:11:09.489Z,-0.90
2019-03-17T05:13:38.063Z,-0.90
2019-03-17T05:16:06.684Z,-0.90
2019-03-17T05:18:35.243Z,-0.90
2019-03-17T05:21:03.823Z,-0.90
2019-03-17T05:23:32.412Z,-0.90
2019-03-17T05:26:01.014Z,-0.80
2019-03-17T05:28:29.597Z,-0.70
2019-03-17T05:30:58.164Z,-0.70
2019-03-17T05:33:26.764Z,-0.70
2019-03-17T05:35:55.367Z,-0.80
2019-03-17T05:38:23.983Z,-0.80
2019-03-17T05:40:52.572Z,-0.80
2019-03-17T05:43:21.119Z,-0.80
2019-03-17T05:45:49.699Z,-0.80
2019-03-17T05:48:18.335Z,-0.70
2019-03-17T05:50:46.893Z,-0.70
2019-03-17T05:53:15.471Z,-0.70
2019-03-17T05:55:44.041Z,-0.70
2019-03-17T05:58:12.642Z,-0.60
2019-03-17T06:00:41.208Z,-0.50
2019-03-17T06:03:09.797Z,-0.40
2019-03-17T06:05:38.357Z,-0.30
2019-03-17T06:08:07.016Z,-0.20
2019-03-17T06:10:35.584Z,0.00
2019-03-17T06:13:04.179Z,0.30
2019-03-17T06:15:32.742Z,0.80
2019-03-17T06:18:01.384Z,1.40
2019-03-17T06:20:29.971Z,1.90
2019-03-17T06:22:58.583Z,2.20
2019-03-17T06:25:27.168Z,2.40
2019-03-17T06:28:15.160Z,2.70
2019-03-17T06:30:43.716Z,2.80
2019-03-17T06:33:12.296Z,2.80
2019-03-17T06:35:40.902Z,2.50
2019-03-17T06:38:09.464Z,2.80
2019-03-17T06:40:38.011Z,2.70
2019-03-17T06:43:06.596Z,3.30
2019-03-17T06:45:35.144Z,4.00
2019-03-17T06:48:03.787Z,5.10
2019-03-17T06:50:32.347Z,6.10
2019-03-17T06:53:00.934Z,6.50
2019-03-17T06:55:29.494Z,7.00
2019-03-17T06:57:58.077Z,6.70
2019-03-17T07:00:26.632Z,7.10
2019-03-17T07:02:55.283Z,7.90
2019-03-17T07:05:23.905Z,8.90
2019-03-17T07:07:52.458Z,9.60
2019-03-17T07:10:21.036Z,10.30
2019-03-17T07:12:49.587Z,10.80
2019-03-17T07:15:18.192Z,12.00
2019-03-17T07:17:46.764Z,12.70
2019-03-17T07:20:15.477Z,12.70
2019-03-17T07:22:44.116Z,13.00
2019-03-17T07:25:12.838Z,13.10
2019-03-17T07:27:41.390Z,13.40
2019-03-17T07:30:14.524Z,13.60
2019-03-17T07:32:43.093Z,13.80
2019-03-17T07:35:11.833Z,13.90
2019-03-17T07:37:40.422Z,13.80
2019-03-17T07:40:11.209Z,13.80
2019-03-17T07:42:39.841Z,13.60
2019-03-17T07:45:10.638Z,13.30
2019-03-17T07:47:39.399Z,13.30
2019-03-17T07:50:13.450Z,13.30
2019-03-17T07:52:42.027Z,13.50
2019-03-17T07:55:11.088Z,13.90
2019-03-17T07:57:39.677Z,14.30
2019-03-17T08:00:11.082Z,14.70
2019-03-17T08:02:39.669Z,14.50
2019-03-17T08:05:09.729Z,15.60
2019-03-17T08:07:38.432Z,15.90
2019-03-17T08:10:14.746Z,16.20
2019-03-17T08:12:43.330Z,16.60
2019-03-17T08:15:13.263Z,16.90
2019-03-17T08:17:41.983Z,17.20
2019-03-17T08:20:11.612Z,17.30
2019-03-17T08:22:40.255Z,17.70
2019-03-17T08:25:10.906Z,18.20
2019-03-17T08:27:39.541Z,18.50
2019-03-17T08:30:11.416Z,18.70
2019-03-17T08:32:41.239Z,19.40
2019-03-17T08:35:10.520Z,19.30
2019-03-17T08:37:39.154Z,19.10
2019-03-17T08:40:10.813Z,19.30
2019-03-17T08:42:39.387Z,18.70
2019-03-17T08:45:10.416Z,18.80
2019-03-17T08:47:38.963Z,19.30
2019-03-17T08:50:12.206Z,19.00
2019-03-17T08:52:42.036Z,18.80
2019-03-17T08:55:11.280Z,18.60
2019-03-17T08:57:39.900Z,19.00
2019-03-17T09:00:16.935Z,19.40
2019-03-17T09:02:45.774Z,19.50
2019-03-17T09:05:14.554Z,18.60
2019-03-17T09:07:44.746Z,19.10
2019-03-17T09:10:14.656Z,19.00
2019-03-17T09:12:43.207Z,19.40
2019-03-17T09:15:11.917Z,19.80
2019-03-17T09:17:40.548Z,19.80
2019-03-17T09:20:13.395Z,20.10
2019-03-17T09:22:42.002Z,20.40
2019-03-17T09:25:11.253Z,20.40
2019-03-17T09:27:39.847Z,20.40
2019-03-17T09:30:15.871Z,20.60
2019-03-17T09:32:44.510Z,21.00
2019-03-17T09:35:13.321Z,20.70
2019-03-17T09:37:41.966Z,21.20
2019-03-17T09:40:17.420Z,20.30
2019-03-17T09:42:46.334Z,20.60
2019-03-17T09:45:15.673Z,20.80
2019-03-17T09:47:44.222Z,21.10
2019-03-17T09:50:17.805Z,21.80
2019-03-17T09:52:46.471Z,21.90
2019-03-17T09:55:15.175Z,21.70
2019-03-17T09:57:43.875Z,21.30
2019-03-17T10:00:18.160Z,21.60
2019-03-17T10:02:46.753Z,21.50
2019-03-17T10:05:15.870Z,21.80
2019-03-17T10:07:44.612Z,21.60
2019-03-17T10:10:15.012Z,21.20
2019-03-17T10:12:43.975Z,21.70
2019-03-17T10:15:14.259Z,21.50
2019-03-17T10:17:42.958Z,21.50
2019-03-17T10:20:16.430Z,22.20
2019-03-17T10:22:45.186Z,21.40
2019-03-17T10:25:13.877Z,22.30
2019-03-17T10:27:42.557Z,22.30
2019-03-17T10:30:18.305Z,22.00
2019-03-17T10:32:46.942Z,22.50
2019-03-17T10:35:15.488Z,22.80
2019-03-17T10:37:44.104Z,23.10
2019-03-17T10:40:14.762Z,22.90
2019-03-17T10:42:43.465Z,23.30
2019-03-17T10:45:12.967Z,22.20
2019-03-17T10:47:41.709Z,22.60
2019-03-17T10:50:21.678Z,23.50
2019-03-17T10:52:50.242Z,23.70
2019-03-17T10:55:18.805Z,22.80
2019-03-17T10:57:47.536Z,23.00
2019-03-17T11:00:18.548Z,23.80
2019-03-17T11:02:47.318Z,24.00
2019-03-17T11:05:16.020Z,23.30
2019-03-17T11:07:44.698Z,23.00
2019-03-17T11:10:14.371Z,23.30
2019-03-17T11:12:42.948Z,23.70
2019-03-17T11:15:22.277Z,23.90
2019-03-17T11:17:51.131Z,24.10
2019-03-17T11:20:19.880Z,23.70
2019-03-17T11:22:52.199Z,24.00
2019-03-17T11:25:23.983Z,23.70
2019-03-17T11:27:52.630Z,23.60
2019-03-17T11:30:22.235Z,23.90
2019-03-17T11:32:50.877Z,23.30
2019-03-17T11:35:19.416Z,23.90
2019-03-17T11:37:48.177Z,24.20
2019-03-17T11:40:18.056Z,24.00
2019-03-17T11:42:49.473Z,24.50
2019-03-17T11:45:17.593Z,24.40
2019-03-17T11:47:46.868Z,24.40
2019-03-17T11:50:16.646Z,24.10
2019-03-17T11:52:45.350Z,24.40
2019-03-17T11:55:14.219Z,24.00
2019-03-17T11:57:43.244Z,23.40
2019-03-17T12:00:24.573Z,23.60
2019-03-17T12:02:53.136Z,23.90
2019-03-17T12:05:21.743Z,23.60
2019-03-17T12:07:50.535Z,22.60
2019-03-17T12:10:23.144Z,23.00
2019-03-17T12:12:51.810Z,23.40
2019-03-17T12:15:26.228Z,23.60
2019-03-17T12:17:54.966Z,23.40
2019-03-17T12:20:23.741Z,23.00
2019-03-17T12:22:52.320Z,22.40
2019-03-17T12:25:20.960Z,22.20
2019-03-17T12:27:49.720Z,21.90
2019-03-17T12:30:20.303Z,22.10
2019-03-17T12:32:50.281Z,21.40
2019-03-17T12:35:18.812Z,21.00
2019-03-17T12:37:47.469Z,20.70
2019-03-17T12:41:26.037Z,20.60
2019-03-17T12:43:54.653Z,20.10
2019-03-17T12:46:23.212Z,19.70
2019-03-17T12:48:51.792Z,19.70
2019-03-17T12:51:20.482Z,19.70
2019-03-17T12:53:50.854Z,19.20
2019-03-17T12:56:21.345Z,19.00
2019-03-17T12:58:53.123Z,18.90
2019-03-17T13:01:24.375Z,18.90
2019-03-17T13:03:53.109Z,18.80
2019-03-17T13:06:32.345Z,18.60
2019-03-17T13:09:01.997Z,18.60
2019-03-17T13:11:47.249Z,18.30
2019-03-17T13:14:30.243Z,18.20
2019-03-17T13:19:43.943Z,18.20
2019-03-17T13:22:12.546Z,18.00
2019-03-17T13:24:41.091Z,18.20
2019-03-17T13:27:09.702Z,18.20
2019-03-17T13:29:38.292Z,18.30
2019-03-17T13:32:06.844Z,18.30
2019-03-17T13:34:35.434Z,18.50
2019-03-17T13:37:04.022Z,18.60
2019-03-17T13:39:32.588Z,18.90
2019-03-17T13:42:01.155Z,18.80
2019-03-17T13:44:29.754Z,18.80
2019-03-17T13:46:58.351Z,19.00
2019-03-17T13:49:26.938Z,19.10
2019-03-17T13:51:55.492Z,18.80
2019-03-17T13:54:24.095Z,19.00
2019-03-17T13:56:52.676Z,19.10
2019-03-17T13:59:28.347Z,18.90
2019-03-17T14:01:56.963Z,18.70
2019-03-17T14:04:25.619Z,18.90
2019-03-17T14:06:54.216Z,19.00
2019-03-17T14:09:22.801Z,18.80
2019-03-17T14:11:51.380Z,19.00
2019-03-17T14:14:19.995Z,19.10
2019-03-17T14:16:48.527Z,19.10
2019-03-17T14:19:17.169Z,19.00
2019-03-17T14:21:45.707Z,19.10
2019-03-17T14:24:14.430Z,19.20
2019-03-17T14:26:42.992Z,19.10
2019-03-17T14:29:11.571Z,19.00
2019-03-17T14:31:40.172Z,18.90
2019-03-17T14:34:08.715Z,19.00
2019-03-17T14:36:37.349Z,19.10
2019-03-17T14:39:06.802Z,19.00
2019-03-17T14:41:35.529Z,18.80
2019-03-17T14:44:07.653Z,18.80
2019-03-17T14:46:36.228Z,18.80
2019-03-17T14:49:04.953Z,18.90
2019-03-17T14:51:33.511Z,18.80
2019-03-17T14:54:02.104Z,18.70
2019-03-17T14:56:30.815Z,18.60
2019-03-17T14:58:59.388Z,18.40
2019-03-17T15:01:27.984Z,18.40
2019-03-17T15:03:56.575Z,18.50
2019-03-17T15:06:25.259Z,18.20
2019-03-17T15:08:54.205Z,18.10
2019-03-17T15:11:22.847Z,18.10
2019-03-17T15:13:51.460Z,17.90
2019-03-17T15:16:20.059Z,17.70
2019-03-17T15:18:48.651Z,17.70
2019-03-17T15:21:17.211Z,17.70
2019-03-17T15:23:45.970Z,17.70
2019-03-17T15:26:14.607Z,17.60
2019-03-17T15:28:43.170Z,17.40
2019-03-17T15:31:12.588Z,17.10
2019-03-17T15:33:41.335Z,17.00
2019-03-17T15:36:09.943Z,16.80
2019-03-17T15:38:38.566Z,16.60
2019-03-17T15:41:18.099Z,16.50
2019-03-17T15:43:37.418Z,16.40
2019-03-17T15:46:06.003Z,16.30
2019-03-17T15:48:34.584Z,16.20
2019-03-17T15:51:03.178Z,16.30
2019-03-17T15:53:33.338Z,16.20
2019-03-17T15:56:01.897Z,16.10
2019-03-17T15:58:30.506Z,16.10
2019-03-17T16:00:59.095Z,16.20
2019-03-17T16:03:27.670Z,16.20
2019-03-17T16:05:56.256Z,16.10
2019-03-17T16:08:24.859Z,16.00
2019-03-17T16:10:53.473Z,15.80
2019-03-17T16:13:22.066Z,15.70
2019-03-17T16:15:53.296Z,15.50
2019-03-17T16:18:23.461Z,15.20
2019-03-17T16:20:52.144Z,14.80
2019-03-17T16:23:20.700Z,14.40
2019-03-17T16:25:50.669Z,13.90
2019-03-17T16:28:19.374Z,13.60
2019-03-17T16:30:48.063Z,13.40
2019-03-17T16:33:16.764Z,13.10
2019-03-17T16:35:46.440Z,12.70
2019-03-17T16:38:15.395Z,12.50
2019-03-17T16:40:44.110Z,12.30
2019-03-17T16:43:12.688Z,12.00
2019-03-17T16:45:41.306Z,11.40
2019-03-17T16:48:09.975Z,10.90
2019-03-17T16:50:38.632Z,10.20
2019-03-17T16:53:07.221Z,10.00
2019-03-17T16:55:35.981Z,9.60
2019-03-17T16:58:04.861Z,9.30
2019-03-17T17:00:33.462Z,9.20
2019-03-17T17:03:02.162Z,8.90
2019-03-17T17:05:30.760Z,8.90
2019-03-17T17:07:59.530Z,8.80
2019-03-17T17:10:30.068Z,8.60
2019-03-17T17:12:58.974Z,8.50
2019-03-17T17:15:29.246Z,8.40
2019-03-17T17:17:58.187Z,8.50
2019-03-17T17:20:35.022Z,8.40
2019-03-17T17:23:04.134Z,8.30
2019-03-17T17:25:32.768Z,8.00
2019-03-17T17:28:01.602Z,7.90
2019-03-17T17:30:30.333Z,7.80
2019-03-17T17:33:00.773Z,7.80
2019-03-17T17:35:29.411Z,7.70
2019-03-17T17:37:58.083Z,7.60
2019-03-17T17:40:27.758Z,7.70
2019-03-17T17:42:56.331Z,7.50
2019-03-17T17:45:26.564Z,7.40
2019-03-17T17:47:55.085Z,7.30
2019-03-17T17:50:25.541Z,7.30
2019-03-17T17:52:54.093Z,7.30
2019-03-17T17:55:22.685Z,7.20
2019-03-17T17:57:52.799Z,7.20
2019-03-17T18:00:23.573Z,7.20
2019-03-17T18:02:52.173Z,7.20
2019-03-17T18:05:20.943Z,7.20
2019-03-17T18:07:49.519Z,7.20
2019-03-17T18:10:18.765Z,7.20
2019-03-17T18:12:47.522Z,7.00
2019-03-17T18:15:25.190Z,7.10
2019-03-17T18:17:54.157Z,7.00
2019-03-17T18:20:23.152Z,7.20
2019-03-17T18:22:52.264Z,7.10
2019-03-17T18:25:21.900Z,7.10
2019-03-17T18:27:50.554Z,7.00
2019-03-17T18:30:24.389Z,7.00
2019-03-17T18:32:53.001Z,7.00
2019-03-17T18:35:21.700Z,6.90
2019-03-17T18:37:51.255Z,6.90
2019-03-17T18:40:21.314Z,6.80
2019-03-17T18:42:50.048Z,6.90
2019-03-17T18:45:29.321Z,6.80
2019-03-17T18:47:58.421Z,6.90
2019-03-17T18:50:27.215Z,6.80
2019-03-17T18:52:55.977Z,6.80
2019-03-17T18:55:26.273Z,6.80
2019-03-17T18:57:54.845Z,6.80
2019-03-17T19:00:25.684Z,6.80
2019-03-17T19:02:54.239Z,6.80
2019-03-17T19:05:22.958Z,6.70
2019-03-17T19:07:51.610Z,6.70
2019-03-17T19:10:20.973Z,6.60
2019-03-17T19:12:49.646Z,6.60
2019-03-17T19:15:19.727Z,6.60
2019-03-17T19:17:48.460Z,6.50
2019-03-17T19:20:18.001Z,6.50
2019-03-17T19:22:46.636Z,6.50
2019-03-17T19:25:16.637Z,6.50
2019-03-17T19:27:45.316Z,6.50
2019-03-17T19:30:23.657Z,6.40
2019-03-17T19:32:52.490Z,6.40
2019-03-17T19:35:21.159Z,6.40
2019-03-17T19:37:49.801Z,6.30
2019-03-17T19:40:23.206Z,6.30
2019-03-17T19:42:58.538Z,6.30
2019-03-17T19:45:22.079Z,6.30
2019-03-17T19:47:50.714Z,6.30
2019-03-17T19:50:20.936Z,6.30
2019-03-17T19:52:49.459Z,6.20
2019-03-17T19:55:18.046Z,6.20
2019-03-17T19:57:46.684Z,6.20
2019-03-17T20:00:19.507Z,6.10
2019-03-17T20:02:48.207Z,6.10
2019-03-17T20:05:18.411Z,6.20
2019-03-17T20:07:47.080Z,6.20
2019-03-17T20:10:21.234Z,6.20
2019-03-17T20:12:49.798Z,6.10
2019-03-17T20:18:47.896Z,6.00
2019-03-17T20:21:19.217Z,6.10
2019-03-17T20:23:47.910Z,6.00
2019-03-17T20:26:16.508Z,6.00
2019-03-17T20:28:46.813Z,6.00
2019-03-17T20:31:15.551Z,5.90
2019-03-17T20:33:44.523Z,5.90
2019-03-17T20:36:13.081Z,5.90
2019-03-17T20:38:41.661Z,5.90
2019-03-17T20:41:10.344Z,5.90
2019-03-17T20:43:38.971Z,5.80
2019-03-17T20:46:07.573Z,5.70
2019-03-17T20:48:36.191Z,5.80
2019-03-17T20:51:04.848Z,5.70
2019-03-17T20:53:33.400Z,5.60
2019-03-17T20:56:01.967Z,5.50
2019-03-17T20:58:30.640Z,5.40
2019-03-17T21:00:59.220Z,5.40
2019-03-17T21:03:27.786Z,5.40
2019-03-17T21:05:56.524Z,5.40
2019-03-17T21:08:25.096Z,5.40
2019-03-17T21:10:53.680Z,5.40
2019-03-17T21:13:23.850Z,5.50
2019-03-17T21:15:52.529Z,5.40
2019-03-17T21:18:21.106Z,5.40
2019-03-17T21:20:49.684Z,5.50
2019-03-17T21:23:18.264Z,5.40
2019-03-17T21:25:46.900Z,5.30
2019-03-17T21:28:15.513Z,5.30
2019-03-17T21:30:44.069Z,5.50
2019-03-17T21:33:12.809Z,5.50
2019-03-17T21:35:41.389Z,5.60
2019-03-17T21:38:10.166Z,5.60
2019-03-17T21:41:01.654Z,5.50
2019-03-17T21:43:14.927Z,5.60
2019-03-17T21:45:43.585Z,5.50
2019-03-17T21:48:12.147Z,5.40
2019-03-17T21:50:40.753Z,5.50
2019-03-17T21:53:09.317Z,5.50
2019-03-17T21:55:43.689Z,5.50
2019-03-17T21:58:12.260Z,5.50
2019-03-17T22:00:40.841Z,5.60
2019-03-17T22:03:10.932Z,5.60
2019-03-17T22:05:39.958Z,5.60
2019-03-17T22:08:08.452Z,5.60
2019-03-17T22:10:50.519Z,5.50
2019-03-17T22:13:10.430Z,5.50
2019-03-17T22:15:39.123Z,5.50
2019-03-17T22:18:07.690Z,5.40
2019-03-17T22:20:36.554Z,5.40
2019-03-17T22:23:07.130Z,5.30
2019-03-17T22:25:35.813Z,5.30
2019-03-17T22:28:08.725Z,5.30
2019-03-17T22:30:34.676Z,5.30
2019-03-17T22:33:03.387Z,5.30
2019-03-17T22:35:32.062Z,5.30
2019-03-17T22:38:00.729Z,5.40
2019-03-17T22:40:29.301Z,5.40
2019-03-17T22:42:58.053Z,5.40
2019-03-17T22:45:26.840Z,5.50
2019-03-17T22:47:56.606Z,5.40
2019-03-17T22:50:25.223Z,5.40
2019-03-17T22:52:53.883Z,5.40
2019-03-17T22:55:22.457Z,5.40
2019-03-17T22:57:51.038Z,5.40
2019-03-17T23:00:24.695Z,5.40
2019-03-17T23:02:55.350Z,5.30
2019-03-17T23:05:23.873Z,5.30
2019-03-17T23:07:52.487Z,5.30
2019-03-17T23:10:21.176Z,5.40
2019-03-17T23:12:49.912Z,5.40
2019-03-17T23:15:18.588Z,5.40
2019-03-17T23:17:47.176Z,5.40
2019-03-17T23:20:23.754Z,5.40
2019-03-17T23:22:52.348Z,5.40
2019-03-17T23:25:20.903Z,5.40
2019-03-17T23:27:49.515Z,5.40
2019-03-17T23:30:22.222Z,5.30
2019-03-17T23:32:50.782Z,5.40
2019-03-17T23:35:19.424Z,5.40
2019-03-17T23:37:48.000Z,5.30
2019-03-17T23:40:18.146Z,5.30
2019-03-17T23:42:46.812Z,5.40
2019-03-17T23:45:15.498Z,5.40
2019-03-17T23:47:44.075Z,5.40
2019-03-17T23:50:15.684Z,5.40
2019-03-17T23:52:44.337Z,5.60
2019-03-17T23:55:13.720Z,5.50
2019-03-17T23:57:42.373Z,5.70
